sensor_id;sensor_type;location;lat;lon;timestamp;pressure;altitude;pressure_sealevel;temperature;humidity
20889;BME280;10604;51.976;7.594;2024-01-16T00:02:20;99881.19;;;12.28;43.59
20889;BME280;10604;51.976;7.594;2024-01-16T00:04:45;99877.56;;;11.94;43.12
20889;BME280;10604;51.976;7.594;2024-01-16T00:07:11;99868.94;;;12.92;42.37
20889;BME280;10604;51.976;7.594;2024-01-16T00:09:36;99876.34;;;12.53;42.30
20889;BME280;10604;51.976;7.594;2024-01-16T00:12:02;99869.31;;;12.52;42.91
20889;BME280;10604;51.976;7.594;2024-01-16T00:14:27;99871.91;;;12.53;42.99
20889;BME280;10604;51.976;7.594;2024-01-16T00:16:52;99877.72;;;12.60;43.49
20889;BME280;10604;51.976;7.594;2024-01-16T00:19:17;99880.59;;;11.87;44.14
20889;BME280;10604;51.976;7.594;2024-01-16T00:21:43;99886.22;;;11.98;43.74
20889;BME280;10604;51.976;7.594;2024-01-16T00:24:11;99888.22;;;12.44;42.55
20889;BME280;10604;51.976;7.594;2024-01-16T00:26:36;99893.91;;;12.54;42.81
20889;BME280;10604;51.976;7.594;2024-01-16T00:29:02;99891.41;;;12.68;43.36
20889;BME280;10604;51.976;7.594;2024-01-16T00:31:27;99902.47;;;12.25;43.56
20889;BME280;10604;51.976;7.594;2024-01-16T00:33:52;99897.69;;;13.16;42.62
20889;BME280;10604;51.976;7.594;2024-01-16T00:36:17;99895.03;;;13.16;42.11
20889;BME280;10604;51.976;7.594;2024-01-16T00:38:43;99909.63;;;12.23;43.18
20889;BME280;10604;51.976;7.594;2024-01-16T00:41:08;99903.25;;;12.94;42.99
20889;BME280;10604;51.976;7.594;2024-01-16T00:43:34;99912.59;;;11.24;44.46
20889;BME280;10604;51.976;7.594;2024-01-16T00:46:00;99908.84;;;13.54;41.87
20889;BME280;10604;51.976;7.594;2024-01-16T00:48:25;99908.53;;;12.78;42.42
20889;BME280;10604;51.976;7.594;2024-01-16T00:50:51;99902.91;;;12.84;42.17
20889;BME280;10604;51.976;7.594;2024-01-16T00:53:16;99910.44;;;12.42;42.89
20889;BME280;10604;51.976;7.594;2024-01-16T00:55:41;99912.91;;;12.28;43.16
20889;BME280;10604;51.976;7.594;2024-01-16T00:58:07;99909.84;;;13.51;41.22
20889;BME280;10604;51.976;7.594;2024-01-16T01:00:32;99914.09;;;12.72;42.30
20889;BME280;10604;51.976;7.594;2024-01-16T01:02:58;99917.69;;;12.02;42.73
20889;BME280;10604;51.976;7.594;2024-01-16T01:05:24;99928.25;;;12.88;41.87
20889;BME280;10604;51.976;7.594;2024-01-16T01:07:53;99920.31;;;13.54;41.08
20889;BME280;10604;51.976;7.594;2024-01-16T01:10:18;99925.41;;;13.57;40.82
20889;BME280;10604;51.976;7.594;2024-01-16T01:12:43;99925.59;;;12.21;42.60
20889;BME280;10604;51.976;7.594;2024-01-16T01:15:09;99933.09;;;12.11;42.98
20889;BME280;10604;51.976;7.594;2024-01-16T01:17:35;99933.28;;;13.75;40.91
20889;BME280;10604;51.976;7.594;2024-01-16T01:20:01;99945.66;;;13.10;41.45
20889;BME280;10604;51.976;7.594;2024-01-16T01:22:26;99940.56;;;12.03;43.07
20889;BME280;10604;51.976;7.594;2024-01-16T01:24:51;99952.88;;;11.29;44.41
20889;BME280;10604;51.976;7.594;2024-01-16T01:27:16;99950.41;;;12.53;42.70
20889;BME280;10604;51.976;7.594;2024-01-16T01:29:41;99950.69;;;12.30;42.14
20889;BME280;10604;51.976;7.594;2024-01-16T01:32:07;99949.44;;;12.88;41.86
20889;BME280;10604;51.976;7.594;2024-01-16T01:34:32;99951.81;;;12.43;42.00
20889;BME280;10604;51.976;7.594;2024-01-16T01:36:57;99956.53;;;12.53;42.62
20889;BME280;10604;51.976;7.594;2024-01-16T01:39:23;99958.13;;;13.25;41.54
20889;BME280;10604;51.976;7.594;2024-01-16T01:41:48;99956.22;;;12.25;43.04
20889;BME280;10604;51.976;7.594;2024-01-16T01:44:13;99959.09;;;12.89;42.85
20889;BME280;10604;51.976;7.594;2024-01-16T01:46:41;99959.78;;;11.88;43.64
20889;BME280;10604;51.976;7.594;2024-01-16T01:49:07;99960.56;;;11.15;44.77
20889;BME280;10604;51.976;7.594;2024-01-16T01:51:32;99959.13;;;11.27;44.49
20889;BME280;10604;51.976;7.594;2024-01-16T01:53:58;99960.47;;;11.73;43.69
20889;BME280;10604;51.976;7.594;2024-01-16T01:56:26;99960.84;;;12.03;43.58
20889;BME280;10604;51.976;7.594;2024-01-16T01:58:53;99950.72;;;11.37;44.19
20889;BME280;10604;51.976;7.594;2024-01-16T02:01:18;99966.84;;;12.06;43.90
20889;BME280;10604;51.976;7.594;2024-01-16T02:03:45;99961.16;;;12.50;42.88
20889;BME280;10604;51.976;7.594;2024-01-16T02:06:11;99960.13;;;12.52;42.80
20889;BME280;10604;51.976;7.594;2024-01-16T02:08:37;99962.66;;;12.88;42.47
20889;BME280;10604;51.976;7.594;2024-01-16T02:11:02;99953.25;;;13.33;41.11
20889;BME280;10604;51.976;7.594;2024-01-16T02:13:27;99966.56;;;12.30;43.03
20889;BME280;10604;51.976;7.594;2024-01-16T02:15:53;99963.47;;;12.22;42.89
20889;BME280;10604;51.976;7.594;2024-01-16T02:18:18;99961.41;;;12.09;42.06
20889;BME280;10604;51.976;7.594;2024-01-16T02:20:43;99965.16;;;12.74;42.40
20889;BME280;10604;51.976;7.594;2024-01-16T02:23:09;99964.56;;;12.52;41.88
20889;BME280;10604;51.976;7.594;2024-01-16T02:25:35;99961.31;;;11.75;43.65
20889;BME280;10604;51.976;7.594;2024-01-16T02:28:00;99969.50;;;12.06;43.00
20889;BME280;10604;51.976;7.594;2024-01-16T02:30:26;99974.66;;;12.27;43.08
20889;BME280;10604;51.976;7.594;2024-01-16T02:32:51;99978.78;;;11.96;43.00
20889;BME280;10604;51.976;7.594;2024-01-16T02:35:16;99979.31;;;12.39;43.08
20889;BME280;10604;51.976;7.594;2024-01-16T02:37:43;99981.38;;;12.68;42.00
20889;BME280;10604;51.976;7.594;2024-01-16T02:40:09;99981.03;;;12.74;42.37
20889;BME280;10604;51.976;7.594;2024-01-16T02:42:34;99975.22;;;11.97;43.23
20889;BME280;10604;51.976;7.594;2024-01-16T02:45:00;99977.53;;;12.39;43.25
20889;BME280;10604;51.976;7.594;2024-01-16T02:47:25;99976.38;;;13.14;41.92
20889;BME280;10604;51.976;7.594;2024-01-16T02:49:50;99975.16;;;13.52;40.75
20889;BME280;10604;51.976;7.594;2024-01-16T02:52:15;99986.72;;;12.84;41.90
20889;BME280;10604;51.976;7.594;2024-01-16T02:54:41;99985.53;;;11.46;43.77
20889;BME280;10604;51.976;7.594;2024-01-16T02:57:06;99982.69;;;11.69;44.10
20889;BME280;10604;51.976;7.594;2024-01-16T02:59:31;99985.72;;;11.80;44.45
20889;BME280;10604;51.976;7.594;2024-01-16T03:01:56;99981.28;;;11.62;44.52
20889;BME280;10604;51.976;7.594;2024-01-16T03:04:22;99988.28;;;11.63;44.43
20889;BME280;10604;51.976;7.594;2024-01-16T03:06:47;99996.78;;;11.88;44.52
20889;BME280;10604;51.976;7.594;2024-01-16T03:09:13;99989.47;;;12.82;42.11
20889;BME280;10604;51.976;7.594;2024-01-16T03:11:38;99994.72;;;13.17;41.56
20889;BME280;10604;51.976;7.594;2024-01-16T03:14:04;99997.72;;;13.59;40.61
20889;BME280;10604;51.976;7.594;2024-01-16T03:16:30;99996.59;;;12.80;42.07
20889;BME280;10604;51.976;7.594;2024-01-16T03:18:56;99987.41;;;13.22;40.93
20889;BME280;10604;51.976;7.594;2024-01-16T03:21:21;99992.25;;;12.28;42.60
20889;BME280;10604;51.976;7.594;2024-01-16T03:23:46;99994.84;;;12.10;42.34
20889;BME280;10604;51.976;7.594;2024-01-16T03:26:12;99989.28;;;12.51;42.86
20889;BME280;10604;51.976;7.594;2024-01-16T03:28:37;99991.88;;;13.21;41.23
20889;BME280;10604;51.976;7.594;2024-01-16T03:31:03;99985.13;;;11.55;43.60
20889;BME280;10604;51.976;7.594;2024-01-16T03:33:28;99982.63;;;12.78;42.38
20889;BME280;10604;51.976;7.594;2024-01-16T03:35:53;99998.00;;;12.53;42.50
20889;BME280;10604;51.976;7.594;2024-01-16T03:38:19;99996.16;;;12.89;41.83
20889;BME280;10604;51.976;7.594;2024-01-16T03:40:44;99987.72;;;11.75;43.44
20889;BME280;10604;51.976;7.594;2024-01-16T03:43:09;99995.00;;;12.07;43.41
20889;BME280;10604;51.976;7.594;2024-01-16T03:45:34;99989.69;;;11.32;44.68
20889;BME280;10604;51.976;7.594;2024-01-16T03:47:59;99982.25;;;12.15;43.04
20889;BME280;10604;51.976;7.594;2024-01-16T03:50:25;99985.16;;;11.92;42.42
20889;BME280;10604;51.976;7.594;2024-01-16T03:52:50;99993.41;;;12.03;43.38
20889;BME280;10604;51.976;7.594;2024-01-16T03:55:15;99995.53;;;12.67;41.84
20889;BME280;10604;51.976;7.594;2024-01-16T03:57:40;100005.16;;;13.03;41.79
20889;BME280;10604;51.976;7.594;2024-01-16T04:00:07;99999.88;;;11.79;43.08
20889;BME280;10604;51.976;7.594;2024-01-16T04:02:32;99999.41;;;12.43;42.58
20889;BME280;10604;51.976;7.594;2024-01-16T04:04:58;100006.88;;;12.52;42.74
20889;BME280;10604;51.976;7.594;2024-01-16T04:07:23;100001.69;;;12.14;42.99
20889;BME280;10604;51.976;7.594;2024-01-16T04:09:50;100012.03;;;12.55;42.24
20889;BME280;10604;51.976;7.594;2024-01-16T04:12:15;99999.94;;;13.01;41.90
20889;BME280;10604;51.976;7.594;2024-01-16T04:14:40;100004.22;;;12.52;42.78
20889;BME280;10604;51.976;7.594;2024-01-16T04:17:05;100004.59;;;12.44;42.46
20889;BME280;10604;51.976;7.594;2024-01-16T04:19:30;100003.56;;;12.30;42.98
20889;BME280;10604;51.976;7.594;2024-01-16T04:21:58;100001.44;;;12.89;41.67
20889;BME280;10604;51.976;7.594;2024-01-16T04:24:24;100009.19;;;13.10;41.54
20889;BME280;10604;51.976;7.594;2024-01-16T04:26:49;99999.22;;;13.32;41.17
20889;BME280;10604;51.976;7.594;2024-01-16T04:29:15;100003.53;;;13.50;40.86
20889;BME280;10604;51.976;7.594;2024-01-16T04:31:40;99998.94;;;13.04;42.15
20889;BME280;10604;51.976;7.594;2024-01-16T04:34:06;100002.47;;;13.37;40.51
20889;BME280;10604;51.976;7.594;2024-01-16T04:36:31;100009.44;;;12.53;41.93
20889;BME280;10604;51.976;7.594;2024-01-16T04:38:56;100000.03;;;13.65;40.62
20889;BME280;10604;51.976;7.594;2024-01-16T04:41:22;100010.16;;;12.91;41.54
20889;BME280;10604;51.976;7.594;2024-01-16T04:43:47;100004.66;;;13.29;41.41
20889;BME280;10604;51.976;7.594;2024-01-16T04:46:14;100002.53;;;13.68;40.50
20889;BME280;10604;51.976;7.594;2024-01-16T04:48:40;99995.69;;;12.99;40.82
20889;BME280;10604;51.976;7.594;2024-01-16T04:51:05;99996.88;;;12.23;42.73
20889;BME280;10604;51.976;7.594;2024-01-16T04:53:31;100005.81;;;12.56;42.74
20889;BME280;10604;51.976;7.594;2024-01-16T04:55:56;99994.72;;;13.17;42.21
20889;BME280;10604;51.976;7.594;2024-01-16T04:58:21;99992.25;;;13.47;41.10
20889;BME280;10604;51.976;7.594;2024-01-16T05:00:47;99988.19;;;14.04;40.28
20889;BME280;10604;51.976;7.594;2024-01-16T05:03:12;99991.19;;;13.33;40.97
20889;BME280;10604;51.976;7.594;2024-01-16T05:05:37;99992.25;;;12.97;42.07
20889;BME280;10604;51.976;7.594;2024-01-16T05:08:02;99991.50;;;12.77;42.35
20889;BME280;10604;51.976;7.594;2024-01-16T05:10:28;99988.81;;;12.26;43.00
20889;BME280;10604;51.976;7.594;2024-01-16T05:12:53;99983.22;;;13.18;41.56
20889;BME280;10604;51.976;7.594;2024-01-16T05:15:18;99974.97;;;12.89;41.73
20889;BME280;10604;51.976;7.594;2024-01-16T05:17:43;99984.72;;;13.39;41.76
20889;BME280;10604;51.976;7.594;2024-01-16T05:20:09;99973.72;;;13.62;41.08
20889;BME280;10604;51.976;7.594;2024-01-16T05:22:35;99974.81;;;13.43;41.62
20889;BME280;10604;51.976;7.594;2024-01-16T05:25:00;99971.00;;;12.81;42.04
20889;BME280;10604;51.976;7.594;2024-01-16T05:27:26;99972.59;;;13.66;41.01
20889;BME280;10604;51.976;7.594;2024-01-16T05:29:51;99977.31;;;12.61;41.91
20889;BME280;10604;51.976;7.594;2024-01-16T05:32:16;99971.16;;;12.43;42.77
20889;BME280;10604;51.976;7.594;2024-01-16T05:34:42;99977.00;;;12.67;41.18
20889;BME280;10604;51.976;7.594;2024-01-16T05:37:07;99981.00;;;12.05;42.40
20889;BME280;10604;51.976;7.594;2024-01-16T05:39:32;99953.63;;;13.74;40.70
20889;BME280;10604;51.976;7.594;2024-01-16T05:41:57;99962.38;;;13.92;40.78
20889;BME280;10604;51.976;7.594;2024-01-16T05:44:23;99955.03;;;13.00;41.46
20889;BME280;10604;51.976;7.594;2024-01-16T05:46:48;99963.19;;;14.08;39.85
20889;BME280;10604;51.976;7.594;2024-01-16T05:49:13;99957.06;;;13.60;40.60
20889;BME280;10604;51.976;7.594;2024-01-16T05:51:38;99963.72;;;13.67;40.57
20889;BME280;10604;51.976;7.594;2024-01-16T05:54:03;99959.75;;;13.27;41.53
20889;BME280;10604;51.976;7.594;2024-01-16T05:56:30;99962.97;;;13.17;41.15
20889;BME280;10604;51.976;7.594;2024-01-16T05:58:55;99951.44;;;13.01;41.17
20889;BME280;10604;51.976;7.594;2024-01-16T06:01:21;99960.75;;;13.25;41.06
20889;BME280;10604;51.976;7.594;2024-01-16T06:03:46;99957.63;;;11.59;44.37
20889;BME280;10604;51.976;7.594;2024-01-16T06:06:13;99960.78;;;14.19;40.03
20889;BME280;10604;51.976;7.594;2024-01-16T06:08:39;99954.44;;;13.43;40.99
20889;BME280;10604;51.976;7.594;2024-01-16T06:11:04;99960.53;;;14.08;40.49
20889;BME280;10604;51.976;7.594;2024-01-16T06:13:29;99949.19;;;13.75;40.75
20889;BME280;10604;51.976;7.594;2024-01-16T06:15:57;99956.72;;;13.98;40.11
20889;BME280;10604;51.976;7.594;2024-01-16T06:18:22;99953.28;;;13.64;40.60
20889;BME280;10604;51.976;7.594;2024-01-16T06:20:48;99955.78;;;13.67;40.79
20889;BME280;10604;51.976;7.594;2024-01-16T06:23:13;99959.00;;;13.72;41.01
20889;BME280;10604;51.976;7.594;2024-01-16T06:25:38;99966.63;;;13.94;40.21
20889;BME280;10604;51.976;7.594;2024-01-16T06:28:03;99964.75;;;13.96;39.22
20889;BME280;10604;51.976;7.594;2024-01-16T06:30:30;99965.97;;;13.91;40.12
20889;BME280;10604;51.976;7.594;2024-01-16T06:32:55;99971.88;;;12.64;42.17
20889;BME280;10604;51.976;7.594;2024-01-16T06:35:21;99968.13;;;14.14;39.88
20889;BME280;10604;51.976;7.594;2024-01-16T06:37:46;99968.81;;;12.89;41.25
20889;BME280;10604;51.976;7.594;2024-01-16T06:40:11;99977.13;;;13.16;41.66
20889;BME280;10604;51.976;7.594;2024-01-16T06:42:36;99971.84;;;13.16;41.33
20889;BME280;10604;51.976;7.594;2024-01-16T06:45:05;99968.25;;;13.50;41.29
20889;BME280;10604;51.976;7.594;2024-01-16T06:47:30;99968.06;;;14.00;40.30
20889;BME280;10604;51.976;7.594;2024-01-16T06:49:55;99970.72;;;14.16;40.07
20889;BME280;10604;51.976;7.594;2024-01-16T06:52:21;99970.72;;;14.00;40.11
20889;BME280;10604;51.976;7.594;2024-01-16T06:54:46;99973.13;;;14.20;39.41
20889;BME280;10604;51.976;7.594;2024-01-16T06:57:11;99975.16;;;13.52;40.81
20889;BME280;10604;51.976;7.594;2024-01-16T06:59:37;99979.72;;;12.83;41.68
20889;BME280;10604;51.976;7.594;2024-01-16T07:02:02;99981.78;;;13.28;41.18
20889;BME280;10604;51.976;7.594;2024-01-16T07:04:28;99984.31;;;12.62;42.52
20889;BME280;10604;51.976;7.594;2024-01-16T07:06:53;99984.47;;;12.59;42.15
20889;BME280;10604;51.976;7.594;2024-01-16T07:09:18;99989.91;;;12.73;42.25
20889;BME280;10604;51.976;7.594;2024-01-16T07:11:45;99991.69;;;13.89;40.38
20889;BME280;10604;51.976;7.594;2024-01-16T07:14:11;99991.06;;;14.15;40.11
20889;BME280;10604;51.976;7.594;2024-01-16T07:16:36;99993.97;;;11.54;43.37
20889;BME280;10604;51.976;7.594;2024-01-16T07:19:02;99989.53;;;12.98;41.91
20889;BME280;10604;51.976;7.594;2024-01-16T07:21:27;100000.34;;;12.76;41.72
20889;BME280;10604;51.976;7.594;2024-01-16T07:23:53;99995.69;;;13.64;40.62
20889;BME280;10604;51.976;7.594;2024-01-16T07:26:18;99997.69;;;13.77;40.44
20889;BME280;10604;51.976;7.594;2024-01-16T07:28:43;99995.19;;;13.73;40.07
20889;BME280;10604;51.976;7.594;2024-01-16T07:31:09;99995.94;;;14.07;39.79
20889;BME280;10604;51.976;7.594;2024-01-16T07:33:34;99996.84;;;13.43;41.02
20889;BME280;10604;51.976;7.594;2024-01-16T07:36:00;99988.38;;;13.37;40.98
20889;BME280;10604;51.976;7.594;2024-01-16T07:38:25;100002.16;;;14.37;39.34
20889;BME280;10604;51.976;7.594;2024-01-16T07:40:50;100010.88;;;13.45;40.00
20889;BME280;10604;51.976;7.594;2024-01-16T07:43:15;100008.81;;;13.50;40.40
20889;BME280;10604;51.976;7.594;2024-01-16T07:45:41;100011.25;;;13.05;40.80
20889;BME280;10604;51.976;7.594;2024-01-16T07:48:06;100006.44;;;12.78;42.03
20889;BME280;10604;51.976;7.594;2024-01-16T07:50:31;100008.28;;;13.28;40.86
20889;BME280;10604;51.976;7.594;2024-01-16T07:52:56;100008.53;;;13.88;39.88
20889;BME280;10604;51.976;7.594;2024-01-16T07:55:22;100014.66;;;14.51;39.21
20889;BME280;10604;51.976;7.594;2024-01-16T07:57:47;100013.72;;;13.25;39.91
20889;BME280;10604;51.976;7.594;2024-01-16T08:00:12;100013.13;;;14.00;39.90
20889;BME280;10604;51.976;7.594;2024-01-16T08:02:38;100022.69;;;12.18;42.99
20889;BME280;10604;51.976;7.594;2024-01-16T08:05:03;100016.78;;;13.17;40.96
20889;BME280;10604;51.976;7.594;2024-01-16T08:07:29;100023.13;;;13.30;40.89
20889;BME280;10604;51.976;7.594;2024-01-16T08:09:54;100016.00;;;13.48;40.73
20889;BME280;10604;51.976;7.594;2024-01-16T08:12:19;100023.09;;;12.98;41.11
20889;BME280;10604;51.976;7.594;2024-01-16T08:14:45;100016.00;;;13.48;40.37
20889;BME280;10604;51.976;7.594;2024-01-16T08:17:10;100021.34;;;13.64;40.55
20889;BME280;10604;51.976;7.594;2024-01-16T08:19:35;100025.25;;;14.67;39.20
20889;BME280;10604;51.976;7.594;2024-01-16T08:22:01;100031.28;;;14.23;39.62
20889;BME280;10604;51.976;7.594;2024-01-16T08:24:27;100024.78;;;14.44;39.70
20889;BME280;10604;51.976;7.594;2024-01-16T08:26:52;100031.19;;;14.86;38.92
20889;BME280;10604;51.976;7.594;2024-01-16T08:29:18;100030.78;;;14.01;39.14
20889;BME280;10604;51.976;7.594;2024-01-16T08:31:43;100035.50;;;14.73;38.81
20889;BME280;10604;51.976;7.594;2024-01-16T08:34:08;100042.91;;;14.36;38.73
20889;BME280;10604;51.976;7.594;2024-01-16T08:36:33;100039.66;;;14.31;39.39
20889;BME280;10604;51.976;7.594;2024-01-16T08:38:59;100038.28;;;13.77;39.98
20889;BME280;10604;51.976;7.594;2024-01-16T08:41:24;100043.72;;;13.58;40.13
20889;BME280;10604;51.976;7.594;2024-01-16T08:43:49;100037.13;;;13.98;39.66
20889;BME280;10604;51.976;7.594;2024-01-16T08:46:16;100041.31;;;14.18;39.55
20889;BME280;10604;51.976;7.594;2024-01-16T08:48:41;100048.09;;;14.99;38.33
20889;BME280;10604;51.976;7.594;2024-01-16T08:51:07;100035.50;;;13.14;40.65
20889;BME280;10604;51.976;7.594;2024-01-16T08:53:33;100041.59;;;13.32;40.49
20889;BME280;10604;51.976;7.594;2024-01-16T08:55:59;100041.41;;;13.52;40.66
20889;BME280;10604;51.976;7.594;2024-01-16T08:58:24;100044.34;;;13.79;39.78
20889;BME280;10604;51.976;7.594;2024-01-16T09:00:50;100049.59;;;14.43;39.24
20889;BME280;10604;51.976;7.594;2024-01-16T09:03:15;100035.41;;;14.13;39.41
20889;BME280;10604;51.976;7.594;2024-01-16T09:05:41;100045.13;;;15.19;38.14
20889;BME280;10604;51.976;7.594;2024-01-16T09:08:08;100039.78;;;13.65;40.08
20889;BME280;10604;51.976;7.594;2024-01-16T09:10:33;100051.13;;;14.93;38.43
20889;BME280;10604;51.976;7.594;2024-01-16T09:12:58;100057.34;;;15.66;37.03
20889;BME280;10604;51.976;7.594;2024-01-16T09:15:24;100060.88;;;13.51;40.38
20889;BME280;10604;51.976;7.594;2024-01-16T09:17:49;100063.13;;;13.59;40.54
20889;BME280;10604;51.976;7.594;2024-01-16T09:20:15;100061.06;;;13.97;39.73
20889;BME280;10604;51.976;7.594;2024-01-16T09:22:40;100058.50;;;14.42;38.48
20889;BME280;10604;51.976;7.594;2024-01-16T09:25:05;100052.34;;;14.26;38.38
20889;BME280;10604;51.976;7.594;2024-01-16T09:27:30;100056.47;;;15.07;37.87
20889;BME280;10604;51.976;7.594;2024-01-16T09:29:56;100060.50;;;14.84;37.97
20889;BME280;10604;51.976;7.594;2024-01-16T09:32:21;100053.44;;;13.42;40.28
20889;BME280;10604;51.976;7.594;2024-01-16T09:34:46;100050.44;;;14.60;38.89
20889;BME280;10604;51.976;7.594;2024-01-16T09:37:11;100056.25;;;13.22;40.45
20889;BME280;10604;51.976;7.594;2024-01-16T09:39:39;100047.91;;;14.27;38.43
20889;BME280;10604;51.976;7.594;2024-01-16T09:42:04;100050.97;;;14.50;38.16
20889;BME280;10604;51.976;7.594;2024-01-16T09:44:30;100054.13;;;13.46;39.55
20889;BME280;10604;51.976;7.594;2024-01-16T09:46:55;100052.34;;;13.29;39.99
20889;BME280;10604;51.976;7.594;2024-01-16T09:49:23;100054.38;;;13.90;39.01
20889;BME280;10604;51.976;7.594;2024-01-16T09:51:48;100052.25;;;13.96;39.88
20889;BME280;10604;51.976;7.594;2024-01-16T09:54:13;100055.91;;;13.94;38.69
20889;BME280;10604;51.976;7.594;2024-01-16T09:56:40;100051.25;;;13.66;39.29
20889;BME280;10604;51.976;7.594;2024-01-16T09:59:06;100053.81;;;12.30;41.56
20889;BME280;10604;51.976;7.594;2024-01-16T10:01:33;100049.19;;;13.55;39.76
20889;BME280;10604;51.976;7.594;2024-01-16T10:03:59;100060.22;;;11.68;41.70
20889;BME280;10604;51.976;7.594;2024-01-16T10:06:26;100051.34;;;12.27;41.76
20889;BME280;10604;51.976;7.594;2024-01-16T10:08:52;100043.78;;;12.89;40.57
20889;BME280;10604;51.976;7.594;2024-01-16T10:11:17;100042.34;;;13.51;39.75
20889;BME280;10604;51.976;7.594;2024-01-16T10:13:43;100049.63;;;12.26;40.86
20889;BME280;10604;51.976;7.594;2024-01-16T10:16:09;100050.81;;;13.25;39.96
20889;BME280;10604;51.976;7.594;2024-01-16T10:18:34;100044.06;;;12.66;40.43
20889;BME280;10604;51.976;7.594;2024-01-16T10:20:59;100044.88;;;13.03;39.55
20889;BME280;10604;51.976;7.594;2024-01-16T10:23:28;100049.22;;;13.38;39.20
20889;BME280;10604;51.976;7.594;2024-01-16T10:28:32;100040.91;;;12.94;39.81
20889;BME280;10604;51.976;7.594;2024-01-16T10:31:09;100043.25;;;12.83;40.26
20889;BME280;10604;51.976;7.594;2024-01-16T10:33:34;100042.16;;;13.04;40.03
20889;BME280;10604;51.976;7.594;2024-01-16T10:36:12;100034.28;;;12.68;39.36
20889;BME280;10604;51.976;7.594;2024-01-16T10:38:41;100025.22;;;14.05;38.49
20889;BME280;10604;51.976;7.594;2024-01-16T10:41:08;100031.53;;;12.52;40.40
20889;BME280;10604;51.976;7.594;2024-01-16T10:43:34;100021.56;;;12.04;41.54
20889;BME280;10604;51.976;7.594;2024-01-16T10:46:10;100018.72;;;11.90;41.95
20889;BME280;10604;51.976;7.594;2024-01-16T10:48:36;100014.72;;;12.00;42.28
20889;BME280;10604;51.976;7.594;2024-01-16T10:51:02;100016.72;;;11.95;41.43
20889;BME280;10604;51.976;7.594;2024-01-16T10:53:32;100018.13;;;11.65;41.70
20889;BME280;10604;51.976;7.594;2024-01-16T10:55:57;100022.84;;;12.14;41.09
20889;BME280;10604;51.976;7.594;2024-01-16T10:58:24;100024.47;;;13.22;39.73
20889;BME280;10604;51.976;7.594;2024-01-16T11:00:54;100022.44;;;12.58;40.56
20889;BME280;10604;51.976;7.594;2024-01-16T11:06:24;100031.03;;;11.13;42.63
20889;BME280;10604;51.976;7.594;2024-01-16T11:08:49;100015.97;;;11.73;42.06
20889;BME280;10604;51.976;7.594;2024-01-16T11:11:16;100022.50;;;12.03;41.56
20889;BME280;10604;51.976;7.594;2024-01-16T11:13:42;100019.50;;;12.81;40.76
20889;BME280;10604;51.976;7.594;2024-01-16T11:16:11;100022.56;;;11.83;41.87
20889;BME280;10604;51.976;7.594;2024-01-16T11:18:36;100017.16;;;12.75;40.75
20889;BME280;10604;51.976;7.594;2024-01-16T11:21:02;100029.25;;;13.48;39.56
20889;BME280;10604;51.976;7.594;2024-01-16T11:23:29;100015.94;;;13.50;39.27
20889;BME280;10604;51.976;7.594;2024-01-16T11:25:54;100008.72;;;13.85;38.44
20889;BME280;10604;51.976;7.594;2024-01-16T11:28:20;100008.38;;;13.91;38.72
20889;BME280;10604;51.976;7.594;2024-01-16T11:30:45;100018.59;;;13.65;38.88
20889;BME280;10604;51.976;7.594;2024-01-16T11:35:54;100022.44;;;12.22;40.41
20889;BME280;10604;51.976;7.594;2024-01-16T11:38:19;100024.31;;;12.90;39.08
20889;BME280;10604;51.976;7.594;2024-01-16T11:40:46;100021.75;;;13.23;38.94
20889;BME280;10604;51.976;7.594;2024-01-16T11:45:56;100032.25;;;13.08;38.70
20889;BME280;10604;51.976;7.594;2024-01-16T11:48:23;100020.66;;;12.23;39.87
20889;BME280;10604;51.976;7.594;2024-01-16T11:50:49;100014.44;;;13.44;38.73
20889;BME280;10604;51.976;7.594;2024-01-16T11:53:35;100019.25;;;12.15;39.81
20889;BME280;10604;51.976;7.594;2024-01-16T12:01:27;100014.63;;;14.05;37.57
20889;BME280;10604;51.976;7.594;2024-01-16T12:04:02;100012.72;;;13.43;38.31
20889;BME280;10604;51.976;7.594;2024-01-16T12:06:28;100018.97;;;14.54;36.60
20889;BME280;10604;51.976;7.594;2024-01-16T12:08:53;100008.69;;;15.36;35.42
20889;BME280;10604;51.976;7.594;2024-01-16T12:11:19;99999.78;;;14.48;36.58
20889;BME280;10604;51.976;7.594;2024-01-16T12:13:44;99987.78;;;15.86;34.90
20889;BME280;10604;51.976;7.594;2024-01-16T12:16:09;99981.69;;;13.78;36.45
20889;BME280;10604;51.976;7.594;2024-01-16T12:18:34;99969.38;;;13.61;36.35
20889;BME280;10604;51.976;7.594;2024-01-16T12:21:07;99964.53;;;14.46;35.78
20889;BME280;10604;51.976;7.594;2024-01-16T12:23:32;99951.47;;;15.58;35.03
20889;BME280;10604;51.976;7.594;2024-01-16T12:25:58;99948.31;;;15.66;34.40
20889;BME280;10604;51.976;7.594;2024-01-16T12:28:27;99954.97;;;15.16;35.15
20889;BME280;10604;51.976;7.594;2024-01-16T12:30:53;99949.50;;;15.19;34.60
20889;BME280;10604;51.976;7.594;2024-01-16T12:33:21;99945.84;;;15.49;34.18
20889;BME280;10604;51.976;7.594;2024-01-16T12:35:46;99950.03;;;15.10;35.05
20889;BME280;10604;51.976;7.594;2024-01-16T12:38:12;99949.31;;;14.19;35.66
20889;BME280;10604;51.976;7.594;2024-01-16T12:40:44;99935.91;;;15.24;34.52
20889;BME280;10604;51.976;7.594;2024-01-16T12:43:11;99940.22;;;14.23;35.34
20889;BME280;10604;51.976;7.594;2024-01-16T12:45:36;99948.97;;;14.40;34.86
20889;BME280;10604;51.976;7.594;2024-01-16T12:48:02;99937.97;;;13.38;35.49
20889;BME280;10604;51.976;7.594;2024-01-16T12:50:31;99943.78;;;14.97;34.95
20889;BME280;10604;51.976;7.594;2024-01-16T12:55:31;99948.69;;;14.75;34.89
20889;BME280;10604;51.976;7.594;2024-01-16T13:00:58;99941.94;;;14.39;35.48
20889;BME280;10604;51.976;7.594;2024-01-16T13:03:43;99934.00;;;14.98;35.04
20889;BME280;10604;51.976;7.594;2024-01-16T13:06:08;99925.28;;;15.24;34.59
20889;BME280;10604;51.976;7.594;2024-01-16T13:08:33;99934.03;;;14.54;34.65
20889;BME280;10604;51.976;7.594;2024-01-16T13:11:02;99935.34;;;15.05;34.45